Time;durP1;ratioP1;P1;durP2;ratioP2;P2;SDS_P1;SDS_P2;PMS_P1;PMS_P2;Temp;Humidity;BMP_temperature;BMP_pressure;BME280_temperature;BME280_humidity;BME280_pressure;Samples;Min_cycle;Max_cycle;Signal;HPM_P1;HPM_P2
2022/02/25 00:00:58;;;;;;;9.40;5.00;;;;;;;3.50;50.75;96396.54;107482;1274;57646;-75
2022/02/25 00:03:29;;;;;;;12.20;4.90;;;;;;;3.49;50.77;96395.06;107454;1274;63437;-74
2022/02/25 00:06:00;;;;;;;9.10;4.40;;;;;;;3.45;50.88;96396.95;107511;1274;36288;-75
2022/02/25 00:08:32;;;;;;;15.00;5.40;;;;;;;3.42;51.08;96394.55;107469;1274;39128;-74
2022/02/25 00:11:03;;;;;;;11.10;5.50;;;;;;;3.42;51.21;96389.05;107525;1273;44226;-74
2022/02/25 00:13:34;;;;;;;8.40;3.80;;;;;;;3.46;51.32;96382.02;107568;1274;41776;-74
2022/02/25 00:16:05;;;;;;;8.50;4.20;;;;;;;3.43;51.54;96378.84;107549;1274;41088;-74
2022/02/25 00:18:36;;;;;;;10.30;5.20;;;;;;;3.41;51.48;96374.04;107475;1272;40595;-75
2022/02/25 00:21:07;;;;;;;14.80;6.20;;;;;;;3.37;51.47;96373.65;107539;1274;46449;-75
2022/02/25 00:23:38;;;;;;;11.00;5.30;;;;;;;3.35;51.45;96374.82;107534;1273;35842;-74
2022/02/25 00:26:12;;;;;;;13.50;5.20;;;;;;;3.37;51.55;96369.25;107504;1272;41764;-75
2022/02/25 00:28:43;;;;;;;7.60;4.00;;;;;;;3.35;51.60;96369.02;107553;1274;40812;-75
2022/02/25 00:31:14;;;;;;;10.60;5.40;;;;;;;3.34;51.75;96361.76;107482;1273;44782;-74
2022/02/25 00:33:44;;;;;;;10.00;5.40;;;;;;;3.30;51.71;96361.96;107525;1274;41232;-75
2022/02/25 00:36:15;;;;;;;13.20;5.90;;;;;;;3.25;51.92;96362.41;107516;1273;41733;-75
2022/02/25 00:38:46;;;;;;;13.50;6.30;;;;;;;3.26;52.07;96352.16;107574;1273;33915;-74
2022/02/25 00:41:17;;;;;;;11.80;5.60;;;;;;;3.27;52.08;96347.41;107490;1274;42498;-74
2022/02/25 00:43:48;;;;;;;13.10;6.60;;;;;;;3.29;52.12;96343.88;107479;1274;39463;-74
2022/02/25 00:46:19;;;;;;;11.30;6.10;;;;;;;3.30;52.32;96341.73;107498;1274;43770;-74
2022/02/25 00:48:50;;;;;;;10.50;5.60;;;;;;;3.31;52.35;96334.94;107521;1272;41835;-74
2022/02/25 00:51:22;;;;;;;10.60;5.20;;;;;;;3.36;52.44;96334.22;107498;1274;36774;-74
2022/02/25 00:53:52;;;;;;;9.40;4.40;;;;;;;3.43;52.37;96335.39;107539;1272;39452;-74
2022/02/25 00:56:24;;;;;;;13.70;5.60;;;;;;;3.53;52.27;96332.02;107512;1274;37067;-74
2022/02/25 00:58:55;;;;;;;9.10;4.90;;;;;;;3.61;52.18;96329.56;107556;1274;37760;-74
2022/02/25 01:01:26;;;;;;;12.70;5.10;;;;;;;3.68;52.08;96318.41;107518;1274;30933;-74
2022/02/25 01:03:57;;;;;;;7.40;3.20;;;;;;;3.75;52.09;96311.94;107517;1274;35856;-74
2022/02/25 01:06:28;;;;;;;12.80;4.70;;;;;;;3.94;51.85;96305.33;107459;1274;40684;-74
2022/02/25 01:08:59;;;;;;;11.50;5.90;;;;;;;4.06;51.65;96312.33;107532;1273;66487;-74
2022/02/25 01:11:30;;;;;;;7.00;3.10;;;;;;;4.00;51.28;96311.27;107544;1273;38400;-74
2022/02/25 01:14:01;;;;;;;8.00;3.60;;;;;;;3.95;51.36;96316.10;107604;1273;37421;-74
2022/02/25 01:16:32;;;;;;;10.00;3.80;;;;;;;3.92;51.62;96299.58;107545;1273;36824;-74
2022/02/25 01:19:03;;;;;;;6.70;2.90;;;;;;;4.08;51.56;96315.14;107555;1273;41739;-74
2022/02/25 01:21:34;;;;;;;6.90;3.40;;;;;;;4.14;51.32;96312.39;107552;1273;35677;-75
2022/02/25 01:24:05;;;;;;;12.40;4.30;;;;;;;4.12;51.26;96316.26;107612;1273;39164;-74
2022/02/25 01:26:36;;;;;;;7.70;4.70;;;;;;;4.07;51.27;96306.52;107554;1273;35348;-75
2022/02/25 01:29:07;;;;;;;9.80;4.30;;;;;;;4.04;51.46;96295.84;107543;1273;36619;-74
2022/02/25 01:31:38;;;;;;;10.30;4.70;;;;;;;4.03;51.50;96299.45;107466;1273;30866;-75
2022/02/25 01:34:09;;;;;;;16.00;4.60;;;;;;;3.97;51.66;96297.17;107523;1273;42323;-74
2022/02/25 01:36:40;;;;;;;13.90;5.00;;;;;;;3.95;51.67;96293.91;107473;1273;38184;-74
2022/02/25 01:39:11;;;;;;;8.90;4.50;;;;;;;3.97;51.69;96291.94;107538;1273;40521;-75
2022/02/25 01:41:42;;;;;;;8.70;4.80;;;;;;;4.01;51.64;96277.86;107524;1274;32623;-75
2022/02/25 01:44:16;;;;;;;11.30;4.30;;;;;;;4.06;51.58;96279.70;107512;1273;45939;-74
2022/02/25 01:46:52;;;;;;;9.30;4.00;;;;;;;4.06;51.63;96269.41;107472;1273;41540;-74
2022/02/25 01:49:24;;;;;;;8.40;3.90;;;;;;;4.10;51.62;96269.69;107506;1273;44400;-74
2022/02/25 01:51:58;;;;;;;4.20;2.90;;;;;;;4.18;51.75;96266.25;107550;1272;29147;-74
2022/02/25 01:54:30;;;;;;;7.80;2.70;;;;;;;4.24;51.51;96255.11;107511;1273;46730;-74
2022/02/25 01:57:02;;;;;;;10.70;4.00;;;;;;;4.25;51.62;96249.50;107568;1272;36388;-74
2022/02/25 01:59:34;;;;;;;9.50;4.60;;;;;;;4.26;51.81;96249.19;107614;1273;27264;-74
2022/02/25 02:02:06;;;;;;;9.70;4.00;;;;;;;4.30;51.88;96245.45;107590;1273;30688;-74
2022/02/25 02:04:39;;;;;;;7.10;3.10;;;;;;;4.36;51.82;96232.40;107480;1273;40474;-74
2022/02/25 02:07:10;;;;;;;8.00;3.20;;;;;;;4.47;51.73;96238.48;107385;1273;219445;-74
2022/02/25 02:09:41;;;;;;;7.70;2.90;;;;;;;4.58;51.60;96241.05;107518;1273;31538;-75
2022/02/25 02:12:13;;;;;;;8.90;3.60;;;;;;;4.83;50.94;96241.58;107502;1273;39230;-75
2022/02/25 02:14:47;;;;;;;8.10;2.70;;;;;;;5.00;50.82;96229.38;107642;1273;32116;-74
2022/02/25 02:17:18;;;;;;;8.10;3.30;;;;;;;5.09;50.49;96237.68;107504;1273;30872;-74
2022/02/25 02:19:49;;;;;;;7.20;3.10;;;;;;;5.20;50.22;96248.17;107566;1273;32780;-74
2022/02/25 02:22:25;;;;;;;9.80;3.80;;;;;;;5.30;49.59;96251.60;107497;1273;43060;-75
2022/02/25 02:24:56;;;;;;;5.40;2.50;;;;;;;5.42;49.10;96248.83;107500;1273;38457;-75
2022/02/25 02:28:17;;;;;;;8.40;2.90;;;;;;;5.44;49.09;96252.38;107532;1273;35941;-74
2022/02/25 02:30:21;;;;;;;5.30;2.50;;;;;;;5.34;49.48;96263.73;107543;1273;39074;-75
2022/02/25 02:32:52;;;;;;;7.60;2.90;;;;;;;5.25;49.60;96274.34;107491;1273;36721;-74
2022/02/25 02:35:24;;;;;;;4.00;2.30;;;;;;;5.19;49.70;96254.62;107528;1273;38731;-74
2022/02/25 02:37:56;;;;;;;7.30;3.20;;;;;;;5.14;50.11;96249.07;107516;1274;49447;-74
2022/02/25 02:40:27;;;;;;;7.10;2.60;;;;;;;5.13;50.30;96254.17;107549;1273;28102;-75
2022/02/25 02:42:59;;;;;;;3.20;2.00;;;;;;;5.19;50.45;96252.05;107542;1273;38821;-75
2022/02/25 02:45:30;;;;;;;3.90;2.20;;;;;;;5.31;50.14;96245.20;107501;1272;44196;-74
2022/02/25 02:48:01;;;;;;;5.80;2.40;;;;;;;5.37;50.33;96243.66;107580;1273;66799;-74
2022/02/25 02:50:33;;;;;;;5.30;3.00;;;;;;;5.44;49.44;96236.39;107569;1273;40929;-75
2022/02/25 02:53:04;;;;;;;6.60;3.00;;;;;;;5.57;49.25;96252.91;107576;1273;73912;-74
2022/02/25 02:55:35;;;;;;;4.50;2.60;;;;;;;5.59;49.35;96274.90;107590;1273;40175;-75
2022/02/25 02:58:06;;;;;;;4.90;2.60;;;;;;;5.53;49.17;96282.30;107617;1272;31458;-74
2022/02/25 03:00:39;;;;;;;4.70;2.80;;;;;;;5.50;49.33;96286.42;107468;1274;46541;-75
2022/02/25 03:03:10;;;;;;;6.00;2.20;;;;;;;5.46;49.28;96275.77;107448;1274;37686;-75
2022/02/25 03:05:42;;;;;;;2.00;1.80;;;;;;;5.41;49.59;96294.77;107490;1274;32265;-74
2022/02/25 03:08:13;;;;;;;6.40;2.90;;;;;;;5.30;49.84;96297.48;107455;1273;37875;-74
2022/02/25 03:10:45;;;;;;;5.30;2.50;;;;;;;5.23;49.90;96294.82;107500;1273;43897;-74
2022/02/25 03:13:19;;;;;;;6.30;2.90;;;;;;;5.20;49.85;96291.05;107426;1274;32227;-74
2022/02/25 03:15:50;;;;;;;6.00;2.60;;;;;;;5.20;49.71;96291.95;107513;1273;33633;-75
2022/02/25 03:18:20;;;;;;;5.40;2.00;;;;;;;5.18;49.78;96283.30;107525;1273;33202;-74
2022/02/25 03:20:51;;;;;;;8.50;3.40;;;;;;;5.13;50.20;96284.39;107513;1273;46610;-74
2022/02/25 03:23:22;;;;;;;8.00;3.40;;;;;;;5.06;50.26;96293.83;107428;1272;137527;-75
2022/02/25 03:25:53;;;;;;;8.20;2.90;;;;;;;5.04;50.17;96297.48;107528;1273;26887;-74
2022/02/25 03:28:24;;;;;;;6.50;2.60;;;;;;;5.06;50.20;96297.09;107489;1273;38033;-74
2022/02/25 03:30:55;;;;;;;6.70;3.10;;;;;;;5.11;50.05;96300.14;107436;1270;43173;-74
2022/02/25 03:33:26;;;;;;;5.00;2.70;;;;;;;5.11;50.12;96298.98;107504;1273;45447;-74
2022/02/25 03:35:57;;;;;;;5.90;2.50;;;;;;;5.10;50.11;96297.60;107472;1273;29437;-74
2022/02/25 03:38:29;;;;;;;7.30;2.90;;;;;;;5.07;50.33;96294.37;107480;1272;31736;-74
2022/02/25 03:40:59;;;;;;;9.50;3.40;;;;;;;5.05;50.52;96292.50;107486;1273;42548;-75
2022/02/25 03:43:30;;;;;;;5.10;1.90;;;;;;;5.07;50.33;96292.44;107489;1272;41357;-74
2022/02/25 03:46:01;;;;;;;8.20;3.40;;;;;;;5.07;50.45;96298.10;107537;1273;36181;-74
2022/02/25 03:48:32;;;;;;;5.30;2.70;;;;;;;5.04;50.43;96299.64;107541;1272;41069;-74
2022/02/25 03:51:03;;;;;;;6.10;2.70;;;;;;;5.04;50.39;96303.79;107464;1273;42984;-74
2022/02/25 03:53:34;;;;;;;6.00;2.60;;;;;;;5.02;50.51;96306.98;107475;1273;57232;-74
2022/02/25 03:56:05;;;;;;;3.00;2.10;;;;;;;4.99;50.73;96304.02;107491;1273;39170;-74
2022/02/25 03:58:36;;;;;;;6.80;3.10;;;;;;;4.92;50.76;96302.22;107574;1274;40453;-74
2022/02/25 04:01:07;;;;;;;5.50;2.70;;;;;;;4.86;50.83;96301.75;107548;1273;31878;-75
2022/02/25 04:03:38;;;;;;;5.40;2.40;;;;;;;4.79;50.85;96300.27;107502;1273;39751;-74
2022/02/25 04:06:09;;;;;;;7.30;2.60;;;;;;;4.75;51.04;96307.16;107433;1273;54983;-74
2022/02/25 04:08:40;;;;;;;3.90;2.00;;;;;;;4.74;51.08;96295.60;107505;1272;38693;-75
2022/02/25 04:11:11;;;;;;;6.90;3.10;;;;;;;4.68;51.41;96297.29;107501;1272;38639;-74
2022/02/25 04:13:42;;;;;;;7.50;3.30;;;;;;;4.61;51.48;96294.89;107520;1273;32954;-74
2022/02/25 04:16:14;;;;;;;7.70;3.60;;;;;;;4.59;51.58;96294.25;107458;1273;42106;-74
2022/02/25 04:18:45;;;;;;;8.50;3.40;;;;;;;4.55;51.55;96295.27;107479;1273;35760;-74
2022/02/25 04:21:17;;;;;;;4.10;2.40;;;;;;;4.52;51.84;96297.27;107501;1273;34458;-74
2022/02/25 04:23:47;;;;;;;8.00;3.50;;;;;;;4.50;51.92;96293.42;107512;1272;30739;-75
2022/02/25 04:26:18;;;;;;;5.60;2.90;;;;;;;4.50;51.99;96293.52;107512;1273;41783;-74
2022/02/25 04:28:50;;;;;;;8.40;3.60;;;;;;;4.50;51.90;96287.89;107536;1273;35301;-74
2022/02/25 04:31:21;;;;;;;8.00;3.70;;;;;;;4.48;52.04;96289.45;107441;1273;33399;-74
2022/02/25 04:33:52;;;;;;;6.80;3.10;;;;;;;4.43;52.16;96290.67;107461;1272;40663;-74
2022/02/25 04:36:23;;;;;;;7.10;3.60;;;;;;;4.36;52.39;96289.65;107485;1273;45476;-74
2022/02/25 04:38:55;;;;;;;4.00;2.80;;;;;;;4.32;52.64;96301.88;107496;1273;41780;-75
2022/02/25 04:41:25;;;;;;;6.30;3.00;;;;;;;4.28;52.67;96300.27;107539;1272;39379;-74
2022/02/25 04:43:56;;;;;;;8.40;3.60;;;;;;;4.28;52.64;96296.50;107472;1273;43102;-74
2022/02/25 04:46:28;;;;;;;5.00;1.90;;;;;;;4.29;52.77;96298.54;107450;1272;42174;-74
2022/02/25 04:48:59;;;;;;;4.50;2.60;;;;;;;4.28;53.00;96298.12;107502;1273;39259;-74
2022/02/25 04:51:31;;;;;;;6.60;3.50;;;;;;;4.26;52.88;96299.30;107530;1273;37818;-74
2022/02/25 04:54:02;;;;;;;6.50;2.90;;;;;;;4.23;53.17;96305.15;107546;1273;44197;-74
2022/02/25 04:56:32;;;;;;;6.70;3.40;;;;;;;4.21;53.44;96320.27;107542;1273;36364;-74
2022/02/25 04:59:03;;;;;;;5.90;3.20;;;;;;;4.28;53.58;96319.68;107557;1273;33647;-74
2022/02/25 05:01:34;;;;;;;5.50;2.50;;;;;;;4.39;53.41;96328.59;107466;1274;40133;-74
2022/02/25 05:04:06;;;;;;;4.90;2.80;;;;;;;4.45;53.27;96326.85;107508;1273;29946;-74
2022/02/25 05:06:37;;;;;;;6.30;2.90;;;;;;;4.47;53.32;96337.69;107463;1273;43693;-75
2022/02/25 05:09:07;;;;;;;4.20;2.10;;;;;;;4.43;53.37;96345.42;107496;1273;42732;-75
2022/02/25 05:11:38;;;;;;;6.80;3.10;;;;;;;4.46;53.20;96350.54;107536;1273;35416;-74
2022/02/25 05:20:15;;;;;;;5.60;2.50;;;;;;;4.48;53.21;96351.09;107520;1273;43816;-75
2022/02/25 05:22:37;;;;;;;7.30;3.90;;;;;;;4.42;53.35;96365.10;107446;1272;48662;-75
2022/02/25 05:25:09;;;;;;;6.00;3.30;;;;;;;4.38;53.46;96368.24;107455;1274;40534;-74
2022/02/25 05:27:40;;;;;;;4.80;3.30;;;;;;;4.30;53.42;96375.02;107488;1272;34418;-74
2022/02/25 05:30:14;;;;;;;8.20;3.90;;;;;;;4.23;53.52;96375.41;107473;1272;40869;-74
2022/02/25 05:32:47;;;;;;;7.00;3.60;;;;;;;4.14;53.61;96377.08;107743;1273;36840;-74
2022/02/25 05:35:19;;;;;;;7.30;3.90;;;;;;;4.05;53.91;96376.90;107507;1273;37171;-74
2022/02/25 05:37:51;;;;;;;10.80;3.80;;;;;;;3.98;54.04;96378.44;107493;1272;36960;-74
2022/02/25 05:40:23;;;;;;;8.40;3.90;;;;;;;3.92;54.19;96385.85;107491;1273;45469;-74
2022/02/25 05:42:54;;;;;;;7.90;4.30;;;;;;;3.86;54.21;96379.95;107456;1273;39762;-74
2022/02/25 05:45:25;;;;;;;12.10;4.20;;;;;;;3.82;54.38;96384.52;107503;1273;41521;-74
2022/02/25 05:47:56;;;;;;;9.90;4.60;;;;;;;3.80;54.57;96391.20;107508;1273;34987;-74
2022/02/25 05:50:27;;;;;;;10.30;4.30;;;;;;;3.80;54.75;96388.80;107441;1273;43814;-74
2022/02/25 05:52:59;;;;;;;10.40;4.60;;;;;;;3.81;54.88;96394.83;107529;1273;35629;-74
2022/02/25 05:55:30;;;;;;;12.80;4.90;;;;;;;3.87;54.84;96400.00;107480;1273;37030;-74
2022/02/25 05:58:01;;;;;;;9.60;4.80;;;;;;;3.97;54.80;96402.66;107431;1273;39706;-74
2022/02/25 06:00:32;;;;;;;9.50;4.60;;;;;;;4.06;54.69;96405.98;107458;1273;39571;-74
2022/02/25 06:03:03;;;;;;;10.30;5.00;;;;;;;4.09;54.58;96410.19;107531;1274;39461;-74
2022/02/25 06:05:34;;;;;;;8.80;4.50;;;;;;;4.11;54.34;96411.15;107558;1273;46520;-74
2022/02/25 06:08:05;;;;;;;7.20;4.20;;;;;;;4.12;54.40;96413.94;107543;1273;47176;-74
2022/02/25 06:10:37;;;;;;;10.00;4.90;;;;;;;4.13;54.33;96417.10;107527;1270;40574;-74
2022/02/25 06:13:08;;;;;;;7.40;4.70;;;;;;;4.27;54.47;96420.70;107445;1273;31303;-74
2022/02/25 06:15:39;;;;;;;8.70;5.10;;;;;;;4.62;54.19;96421.81;107528;1273;39522;-75
2022/02/25 06:18:10;;;;;;;10.20;5.00;;;;;;;5.01;53.86;96424.77;107455;1273;31764;-75
2022/02/25 06:20:41;;;;;;;10.20;4.80;;;;;;;5.48;53.11;96429.54;107524;1273;32700;-75
2022/02/25 06:23:12;;;;;;;11.60;5.60;;;;;;;5.46;52.65;96430.61;107524;1273;36694;-74
2022/02/25 06:25:43;;;;;;;9.40;5.30;;;;;;;5.34;52.68;96429.36;107504;1273;39722;-74
2022/02/25 06:28:15;;;;;;;6.60;4.30;;;;;;;5.23;52.81;96440.57;107501;1273;41871;-74
2022/02/25 06:30:48;;;;;;;11.40;4.80;;;;;;;5.15;52.73;96443.36;107408;1272;79603;-74
2022/02/25 06:33:19;;;;;;;10.80;5.50;;;;;;;5.05;53.00;96443.25;107449;1273;45504;-74
2022/02/25 06:35:51;;;;;;;9.20;5.00;;;;;;;4.95;52.91;96443.73;107461;1272;37029;-74
2022/02/25 06:38:22;;;;;;;9.90;5.50;;;;;;;4.86;53.15;96442.16;107454;1273;37145;-75
2022/02/25 06:40:53;;;;;;;10.60;5.00;;;;;;;4.78;53.38;96449.59;107443;1273;39102;-75
2022/02/25 06:43:24;;;;;;;9.40;4.90;;;;;;;4.72;53.64;96456.65;107484;1273;29112;-74
2022/02/25 06:45:55;;;;;;;10.90;4.80;;;;;;;4.69;53.75;96457.88;107508;1272;45721;-74
2022/02/25 06:48:26;;;;;;;12.60;4.80;;;;;;;4.68;53.81;96457.92;107461;1273;39141;-74
2022/02/25 06:50:57;;;;;;;5.60;2.90;;;;;;;4.67;54.08;96457.45;107463;1273;36058;-74
2022/02/25 06:53:28;;;;;;;7.30;4.30;;;;;;;4.68;54.11;96458.39;107484;1273;34967;-74
2022/02/25 06:55:59;;;;;;;7.30;3.80;;;;;;;4.70;54.11;96464.24;107494;1273;32485;-74
2022/02/25 06:58:31;;;;;;;9.90;4.30;;;;;;;4.76;54.24;96464.83;107512;1273;31407;-75
2022/02/25 07:01:05;;;;;;;7.60;4.10;;;;;;;4.76;54.35;96464.26;107433;1273;117762;-75
2022/02/25 07:03:36;;;;;;;11.40;4.80;;;;;;;4.76;54.36;96474.19;107543;1272;34190;-74
2022/02/25 07:06:07;;;;;;;8.60;4.20;;;;;;;4.79;54.32;96483.16;107544;1273;39867;-74
2022/02/25 07:08:38;;;;;;;9.20;4.60;;;;;;;4.81;54.51;96485.60;107434;1273;38275;-75
2022/02/25 07:11:09;;;;;;;8.50;4.40;;;;;;;4.86;54.57;96499.20;107490;1273;38056;-75
2022/02/25 07:13:40;;;;;;;8.10;3.80;;;;;;;4.88;54.76;96505.90;107493;1273;40531;-74
2022/02/25 07:16:11;;;;;;;8.60;4.10;;;;;;;4.88;54.92;96513.36;107463;1273;37560;-74
2022/02/25 07:18:42;;;;;;;5.30;2.80;;;;;;;4.91;54.86;96519.75;107505;1273;33498;-74
2022/02/25 07:21:13;;;;;;;9.10;4.40;;;;;;;4.99;55.05;96525.64;107478;1273;40626;-75
2022/02/25 07:23:45;;;;;;;7.50;3.10;;;;;;;5.07;55.36;96528.94;107514;1273;43998;-75
2022/02/25 07:26:15;;;;;;;9.20;3.90;;;;;;;5.12;55.22;96532.47;107489;1273;37879;-75
2022/02/25 07:28:52;;;;;;;7.50;4.30;;;;;;;5.13;55.37;96539.78;107486;1272;31579;-75
2022/02/25 07:31:23;;;;;;;14.40;5.20;;;;;;;5.10;55.36;96545.38;107491;1273;43839;-74
2022/02/25 07:33:54;;;;;;;11.60;4.10;;;;;;;5.09;55.38;96555.92;107472;1273;41203;-75
2022/02/25 07:36:26;;;;;;;7.70;3.90;;;;;;;5.08;55.72;96564.01;107417;1274;36819;-75
2022/02/25 07:38:57;;;;;;;7.20;3.30;;;;;;;5.05;55.94;96572.62;107422;1273;66046;-74
2022/02/25 07:41:28;;;;;;;8.60;3.20;;;;;;;5.03;56.41;96581.32;107439;1273;34889;-75
2022/02/25 07:43:59;;;;;;;9.50;3.90;;;;;;;5.01;57.67;96589.83;107460;1273;37920;-75
2022/02/25 07:46:30;;;;;;;7.80;3.30;;;;;;;4.96;58.24;96601.69;107487;1273;34296;-74
2022/02/25 07:49:02;;;;;;;6.30;3.80;;;;;;;4.89;59.02;96601.89;107423;1273;63924;-75
2022/02/25 07:51:33;;;;;;;8.90;3.60;;;;;;;4.80;60.11;96607.39;107434;1273;28731;-75
2022/02/25 07:54:04;;;;;;;5.70;2.90;;;;;;;4.69;61.58;96608.55;107443;1274;39488;-75
2022/02/25 07:56:35;;;;;;;4.90;2.90;;;;;;;4.58;62.69;96620.51;107611;1273;31163;-75
2022/02/25 07:59:06;;;;;;;7.10;3.50;;;;;;;4.49;64.01;96639.38;107502;1273;42187;-74
2022/02/25 08:01:37;;;;;;;8.60;4.60;;;;;;;4.39;65.57;96638.12;107494;1273;34514;-75
2022/02/25 08:04:08;;;;;;;5.50;2.80;;;;;;;4.27;67.65;96638.48;107461;1273;53338;-75
2022/02/25 08:06:42;;;;;;;7.20;4.60;;;;;;;4.11;69.81;96657.36;107503;1273;35035;-75
2022/02/25 08:09:13;;;;;;;8.00;5.50;;;;;;;3.92;70.89;96677.27;107504;1270;36680;-75
2022/02/25 08:11:44;;;;;;;8.10;5.10;;;;;;;3.77;71.77;96687.63;107498;1272;38921;-75
2022/02/25 08:14:16;;;;;;;11.40;7.00;;;;;;;3.57;72.85;96688.46;107448;1272;40220;-75
2022/02/25 08:16:48;;;;;;;10.20;7.70;;;;;;;3.37;73.87;96697.04;107491;1273;30945;-74
2022/02/25 08:19:19;;;;;;;4.20;3.00;;;;;;;3.20;75.63;96688.39;107530;1273;27730;-74
2022/02/25 08:21:50;;;;;;;5.50;3.10;;;;;;;2.87;76.34;96717.36;107479;1273;39452;-75
2022/02/25 08:24:21;;;;;;;1.40;1.30;;;;;;;2.62;75.79;96730.11;107557;1273;29408;-75
2022/02/25 08:26:52;;;;;;;2.50;1.40;;;;;;;2.37;75.05;96741.72;107504;1272;37774;-75
2022/02/25 08:29:23;;;;;;;3.10;1.60;;;;;;;2.17;75.70;96750.10;107469;1272;37375;-75
2022/02/25 08:31:54;;;;;;;2.30;1.50;;;;;;;1.99;76.44;96749.29;107450;1273;33620;-75
2022/02/25 08:34:25;;;;;;;1.50;1.20;;;;;;;1.84;76.61;96755.98;107462;1272;43816;-74
2022/02/25 08:36:56;;;;;;;1.20;0.90;;;;;;;1.79;76.59;96751.41;107467;1273;48529;-75
2022/02/25 08:39:28;;;;;;;1.50;1.30;;;;;;;1.67;77.98;96761.52;107469;1273;62835;-74
2022/02/25 08:41:59;;;;;;;0.80;0.70;;;;;;;1.54;77.26;96764.05;107462;1273;44400;-75
2022/02/25 08:44:30;;;;;;;1.90;1.10;;;;;;;1.50;77.45;96770.58;107496;1273;33327;-75
2022/02/25 08:47:01;;;;;;;1.40;0.80;;;;;;;1.48;77.21;96769.03;107489;1273;41351;-75
2022/02/25 08:49:32;;;;;;;2.20;1.70;;;;;;;1.45;77.87;96769.19;107497;1272;36874;-74
2022/02/25 08:52:05;;;;;;;1.80;1.50;;;;;;;1.41;78.02;96772.13;107473;1274;34749;-74
2022/02/25 08:54:35;;;;;;;2.20;1.70;;;;;;;1.46;77.51;96779.67;107508;1273;38824;-74
2022/02/25 08:57:07;;;;;;;3.10;2.10;;;;;;;1.51;77.62;96783.98;107537;1273;41346;-75
2022/02/25 08:59:39;;;;;;;2.20;1.10;;;;;;;1.50;77.79;96779.46;107449;1273;47600;-76
2022/02/25 09:02:10;;;;;;;19.60;13.50;;;;;;;1.47;78.63;96787.85;107504;1273;40568;-75
2022/02/25 09:04:42;;;;;;;5.20;3.30;;;;;;;1.45;78.45;96790.36;107454;1273;42654;-75
2022/02/25 09:07:13;;;;;;;3.30;2.40;;;;;;;1.50;78.40;96796.09;107534;1273;43134;-73
2022/02/25 09:09:45;;;;;;;3.80;2.50;;;;;;;1.58;78.20;96789.76;107477;1273;39329;-75
2022/02/25 09:12:16;;;;;;;2.80;2.00;;;;;;;1.66;78.01;96793.20;107483;1273;41768;-75
2022/02/25 09:14:47;;;;;;;3.20;2.70;;;;;;;1.66;78.14;96791.70;107470;1273;40699;-75
2022/02/25 09:17:18;;;;;;;4.50;2.90;;;;;;;1.72;78.02;96797.86;107433;1273;49189;-75
2022/02/25 09:19:49;;;;;;;3.20;2.40;;;;;;;1.73;78.07;96800.18;107473;1273;48302;-74
2022/02/25 09:22:20;;;;;;;3.60;2.50;;;;;;;1.75;78.13;96800.39;107538;1273;39041;-75
2022/02/25 09:24:51;;;;;;;3.30;2.50;;;;;;;1.74;78.06;96800.16;107540;1273;30853;-75
2022/02/25 09:27:22;;;;;;;4.60;2.50;;;;;;;1.85;78.08;96804.52;107358;1273;231983;-75
2022/02/25 09:29:54;;;;;;;5.60;4.00;;;;;;;1.82;77.82;96808.48;107504;1273;30569;-75
2022/02/25 09:32:26;;;;;;;3.00;2.20;;;;;;;1.76;78.51;96808.70;107486;1273;37008;-75
2022/02/25 09:34:56;;;;;;;2.90;2.20;;;;;;;1.74;78.26;96813.11;107504;1273;30979;-75
2022/02/25 09:37:29;;;;;;;3.70;2.20;;;;;;;1.78;78.24;96818.73;107499;1273;33430;-75
2022/02/25 09:40:00;;;;;;;3.20;1.90;;;;;;;1.88;78.55;96817.75;107500;1273;41482;-75
2022/02/25 09:42:33;;;;;;;4.70;2.40;;;;;;;1.91;79.05;96819.73;107454;1273;42918;-75
2022/02/25 09:45:05;;;;;;;4.60;3.60;;;;;;;1.91;79.44;96822.23;107544;1273;37863;-74
2022/02/25 09:47:37;;;;;;;4.60;3.10;;;;;;;1.90;79.51;96825.58;107511;1273;78533;-74
2022/02/25 09:50:11;;;;;;;11.20;9.20;;;;;;;1.90;79.81;96829.83;107462;1273;42866;-75
2022/02/25 09:52:43;;;;;;;7.80;7.00;;;;;;;1.92;80.09;96831.82;107572;1273;37777;-74
2022/02/25 09:55:23;;;;;;;8.60;6.40;;;;;;;1.90;80.15;96835.94;107473;1273;51392;-75
2022/02/25 09:57:56;;;;;;;5.00;3.30;;;;;;;1.88;79.91;96843.33;107571;1273;39657;-75
2022/02/25 10:00:28;;;;;;;3.40;2.80;;;;;;;1.87;80.03;96854.05;107482;1273;39961;-74
2022/02/25 10:03:02;;;;;;;1.90;1.80;;;;;;;1.84;80.06;96844.98;107491;1272;38229;-73
2022/02/25 10:05:35;;;;;;;3.10;1.70;;;;;;;1.76;80.37;96848.98;107490;1273;42795;-75
2022/02/25 10:08:14;;;;;;;4.90;1.50;;;;;;;1.68;80.62;96855.42;107488;1274;44319;-75
2022/02/25 10:10:50;;;;;;;4.20;1.40;;;;;;;1.64;80.48;96856.27;107480;1273;51445;-75
2022/02/25 10:13:22;;;;;;;4.10;2.10;;;;;;;1.65;80.12;96855.60;107469;1273;39953;-75
2022/02/25 10:15:56;;;;;;;3.10;2.10;;;;;;;1.70;79.50;96848.34;107444;1274;47950;-75
2022/02/25 10:18:30;;;;;;;1.60;1.40;;;;;;;1.74;78.78;96850.23;107516;1273;34181;-75
2022/02/25 10:21:07;;;;;;;1.00;0.90;;;;;;;1.76;78.17;96852.73;107505;1273;38256;-75
2022/02/25 10:23:40;;;;;;;1.10;0.90;;;;;;;1.76;76.64;96855.27;107456;1273;41640;-75
2022/02/25 10:26:16;;;;;;;1.70;1.40;;;;;;;1.81;76.60;96850.48;107448;1273;48605;-75
2022/02/25 10:28:49;;;;;;;2.80;1.20;;;;;;;1.86;75.77;96860.09;107576;1273;48181;-75
2022/02/25 10:31:26;;;;;;;1.70;1.60;;;;;;;1.88;75.46;96861.15;107448;1275;41526;-75
2022/02/25 10:34:06;;;;;;;2.00;1.50;;;;;;;1.89;75.36;96858.40;107445;1273;46494;-75
2022/02/25 10:36:47;;;;;;;1.60;1.50;;;;;;;1.93;75.79;96858.52;107514;1273;39481;-75
2022/02/25 10:39:21;;;;;;;5.00;3.20;;;;;;;1.96;75.12;96851.64;107470;1273;42383;-74
2022/02/25 10:42:08;;;;;;;3.90;1.30;;;;;;;2.08;75.85;96849.34;107479;1273;41285;-75
2022/02/25 10:44:42;;;;;;;1.70;1.30;;;;;;;2.16;75.05;96855.73;107534;1273;66964;-75
2022/02/25 10:47:23;;;;;;;3.10;1.30;;;;;;;2.11;74.96;96859.80;107526;1273;30947;-75
2022/02/25 10:50:02;;;;;;;2.10;1.30;;;;;;;2.06;74.96;96859.58;107456;1274;38386;-74
2022/02/25 10:52:36;;;;;;;2.60;1.70;;;;;;;2.07;75.17;96860.70;107549;1273;38409;-75
2022/02/25 10:55:12;;;;;;;3.70;2.10;;;;;;;2.14;75.70;96862.04;107546;1272;36848;-74
2022/02/25 10:57:43;;;;;;;7.60;4.30;;;;;;;2.19;75.70;96865.08;107384;1273;46433;-74
2022/02/25 11:00:17;;;;;;;4.60;2.30;;;;;;;2.32;75.90;96865.17;107519;1273;35112;-75
2022/02/25 11:02:50;;;;;;;6.10;2.80;;;;;;;2.46;75.74;96869.15;107456;1273;175507;-74
2022/02/25 11:05:23;;;;;;;3.30;2.60;;;;;;;2.63;75.63;96872.04;107536;1273;32018;-75
2022/02/25 11:07:57;;;;;;;6.70;3.40;;;;;;;2.73;75.39;96868.28;107553;1273;34787;-74
2022/02/25 11:10:30;;;;;;;3.30;2.90;;;;;;;2.90;75.39;96872.33;107424;1273;71603;-74
2022/02/25 11:13:05;;;;;;;5.40;4.10;;;;;;;2.91;74.81;96877.17;107519;1271;38303;-74
2022/02/25 11:15:42;;;;;;;5.60;3.80;;;;;;;2.86;74.54;96873.34;107549;1273;30372;-74
2022/02/25 11:18:13;;;;;;;5.60;3.90;;;;;;;2.77;74.17;96873.77;107483;1273;61062;-75
2022/02/25 11:20:45;;;;;;;5.00;3.50;;;;;;;2.73;74.15;96876.39;107479;1273;52878;-75
2022/02/25 11:23:17;;;;;;;8.30;5.30;;;;;;;2.58;74.15;96872.48;107494;1273;44590;-74
2022/02/25 11:25:49;;;;;;;7.10;4.70;;;;;;;2.44;74.27;96872.04;107530;1273;38659;-75
2022/02/25 11:28:25;;;;;;;9.10;3.40;;;;;;;2.34;75.09;96876.33;107465;1273;66711;-74
2022/02/25 11:31:01;;;;;;;6.10;3.40;;;;;;;2.26;75.65;96873.58;107509;1273;40895;-74
2022/02/25 11:33:33;;;;;;;4.30;2.70;;;;;;;2.18;76.22;96872.16;107485;1273;80721;-74
2022/02/25 11:36:07;;;;;;;3.10;2.50;;;;;;;2.11;76.52;96874.77;107516;1273;38442;-74
2022/02/25 11:38:42;;;;;;;3.20;2.10;;;;;;;2.13;76.90;96877.02;107543;1273;33168;-75
2022/02/25 11:41:20;;;;;;;5.40;3.90;;;;;;;2.24;77.27;96876.73;107524;1273;40171;-75
2022/02/25 11:43:54;;;;;;;6.30;4.00;;;;;;;2.45;77.29;96880.35;107483;1273;41880;-74
2022/02/25 11:46:36;;;;;;;2.60;1.80;;;;;;;2.68;77.10;96873.74;107481;1273;44567;-74
2022/02/25 11:49:20;;;;;;;58.40;23.00;;;;;;;2.75;75.60;96873.63;107502;1274;47360;-75
2022/02/25 11:52:06;;;;;;;50.00;20.20;;;;;;;2.75;73.43;96874.50;107629;1273;47105;-75
2022/02/25 11:54:46;;;;;;;36.10;14.30;;;;;;;2.74;72.56;96871.13;107570;1273;44476;-74
2022/02/25 11:57:29;;;;;;;22.00;9.60;;;;;;;2.74;72.89;96880.14;107469;1273;46033;-75
2022/02/25 12:00:31;;;;;;;10.00;4.40;;;;;;;2.82;73.22;96884.80;107508;1273;32459;-75